Home   Weather   United Kingdom   Cardiff   Past weeks
Flag for United Kingdom

Past Weather in Cardiff, Wales, United Kingdom — Yesterday and Last 2 Weeks

Currently: 36 °F. Chilly. (Weather station: Wales Airport, United Kingdom). See more current weather

Past Weather in Cardiff — Graph

°F

Cardiff Temperature Yesterday

Maximum temperature yesterday: 46 °F (at 12:20 pm)
Minimum temperature yesterday: 32 °F (at 4:50 am)
Average temperature yesterday: 38 °F

High & Low Weather Summary for the Past Weeks

 TemperatureHumidityPressure
High52 °F (Jan 8, 11:20 am)100% (Jan 3, 11:20 pm)30.77 "Hg (Jan 3, 11:20 pm)
Low32 °F (Jan 13, 8:50 am)57% (Jan 14, 1:50 pm)29.36 "Hg (Jan 8, 1:50 pm)
Average42 °F90%30.15 "Hg
* Reported Jan 2 11:20 pm — Jan 17 11:50 pm, Cardiff. Weather by CustomWeather, © 2022

Note: Actual official high and low records may vary slightly from our data, if they occured in-between our weather recording intervals... More about our weather records

Cardiff Weather History for the Previous 24 Hours

Scroll right to see more
 ConditionsComfort  
Time TempWeatherWind HumidityBarometerVisibility
11:50 pm
Mon, Jan 17
36 °FChilly.7 mph100%30.66 "HgN/A
11:20 pm36 °FChilly.6 mph93%30.66 "HgN/A
10:50 pm37 °FChilly.6 mph93%30.66 "HgN/A
10:20 pm37 °FChilly.6 mph93%30.66 "HgN/A
9:50 pm36 °FChilly.6 mph93%30.69 "HgN/A
9:20 pm36 °FChilly.7 mph93%30.69 "HgN/A
8:50 pm36 °FChilly.8 mph93%30.69 "HgN/A
8:20 pm34 °FChilly.7 mph100%30.69 "HgN/A
7:50 pm36 °FChilly.6 mph93%30.69 "HgN/A
6:50 pm36 °FChilly.5 mph93%30.66 "HgN/A
6:20 pm37 °FChilly.3 mph93%30.66 "HgN/A
5:50 pm39 °FChilly.2 mph93%30.66 "HgN/A
5:20 pm37 °FChilly.3 mph93%30.69 "HgN/A
4:50 pm41 °FQuite cool.3 mph87%30.66 "HgN/A
4:20 pm39 °FChilly.3 mph93%30.66 "HgN/A
3:50 pm43 °FQuite cool.2 mph76%30.66 "HgN/A
3:20 pm45 °FQuite cool.3 mph71%30.66 "HgN/A
2:50 pm46 °FCool.3 mph71%30.66 "HgN/A
2:20 pm46 °FCool.2 mph71%30.66 "HgN/A
1:50 pm46 °FCool.2 mph66%30.66 "HgN/A
1:20 pm46 °FCool.3 mph71%30.69 "HgN/A
12:50 pm46 °FCool.2 mph71%30.69 "HgN/A
12:20 pm46 °FCool.3 mph71%30.69 "HgN/A
11:50 am43 °FQuite cool.3 mph87%30.69 "HgN/A
11:20 am43 °FQuite cool.2 mph81%30.69 "HgN/A
10:50 am41 °FQuite cool.2 mph87%30.72 "HgN/A
10:20 am39 °FChilly.1 mph93%30.69 "HgN/A
9:50 am34 °FChilly.2 mph93%30.69 "HgN/A
9:20 am34 °FChilly.2 mph93%30.69 "HgN/A
8:50 am34 °FChilly.2 mph93%30.66 "HgN/A
8:20 am34 °FChilly.1 mph93%30.66 "HgN/A
7:50 am32 °FChilly.1 mph100%30.66 "HgN/A
7:20 am36 °FChilly.6 mph93%30.63 "HgN/A
6:50 am32 °FChilly.7 mph93%30.63 "HgN/A
6:20 am34 °FChilly.7 mph93%30.63 "HgN/A
5:50 am34 °FChilly.7 mph93%30.63 "HgN/A
4:50 am32 °FChilly.6 mph93%30.63 "HgN/A
4:20 am34 °FChilly.8 mph93%30.63 "HgN/A
3:50 am36 °FChilly.7 mph87%30.63 "HgN/A
3:20 am34 °FChilly.8 mph93%30.63 "HgN/A
2:50 am34 °FChilly.8 mph93%30.63 "HgN/A
2:20 am34 °FChilly.7 mph93%30.63 "HgN/A
1:50 am36 °FChilly.6 mph87%30.60 "HgN/A
1:20 am36 °FChilly.7 mph93%30.60 "HgN/A
Weather by CustomWeather, © 2022

See weather overview